Terminal Aerodrome Forecast
Issued by NWS

Current Version | Previous Version | Text Only | Print | Product List | Glossary On
Versions: 1 2 3 4 5 6 7 8 9 10 11 12 13 14 15 16 17 18
000
FTUS41 KCAR 271737
TAFFVE
TAF
KFVE 271737Z 2718/2818 02015G30KT P6SM -SHRA SCT015 BKN025
     FM272300 03011KT P6SM BKN030
     FM280900 36012KT P6SM BKN015=

USA.gov is the U.S. government's official web portal to all federal, state and local government web resources and services.